createdAt,value
2017-10-24T00:01:10.113Z,15.60
2017-10-24T00:03:37.645Z,15.87
2017-10-24T00:06:05.225Z,16.30
2017-10-24T00:08:33.655Z,14.33
2017-10-24T00:11:01.880Z,15.27
2017-10-24T00:13:29.676Z,16.23
2017-10-24T00:15:57.235Z,15.00
2017-10-24T00:18:24.767Z,15.90
2017-10-24T00:20:53.030Z,17.47
2017-10-24T00:23:20.596Z,17.17
2017-10-24T00:25:48.128Z,14.97
2017-10-24T00:28:15.718Z,17.13
2017-10-24T00:30:43.247Z,15.20
2017-10-24T00:33:10.837Z,15.47
2017-10-24T00:35:39.157Z,16.97
2017-10-24T00:38:06.740Z,16.90
2017-10-24T00:40:34.271Z,19.70
2017-10-24T00:43:01.809Z,19.60
2017-10-24T00:45:29.603Z,22.80
2017-10-24T00:47:57.152Z,21.90
2017-10-24T00:50:25.469Z,20.90
2017-10-24T00:52:53.002Z,24.23
2017-10-24T00:55:21.324Z,26.90
2017-10-24T00:57:48.860Z,28.83
2017-10-24T01:00:16.387Z,30.00
2017-10-24T01:02:43.921Z,31.80
2017-10-24T01:05:11.447Z,23.53
2017-10-24T01:07:38.979Z,30.40
2017-10-24T01:10:06.519Z,30.47
2017-10-24T01:12:34.054Z,37.63
2017-10-24T01:15:02.631Z,27.10
2017-10-24T01:17:31.120Z,24.90
2017-10-24T01:19:59.576Z,23.00
2017-10-24T01:22:27.111Z,23.37
2017-10-24T01:24:54.644Z,20.47
2017-10-24T01:27:23.107Z,22.67
2017-10-24T01:29:50.637Z,19.83
2017-10-24T01:32:18.166Z,24.00
2017-10-24T01:34:45.691Z,20.20
2017-10-24T01:37:14.171Z,21.73
2017-10-24T01:39:41.701Z,23.10
2017-10-24T01:42:10.033Z,23.00
2017-10-24T01:44:37.559Z,18.60
2017-10-24T01:47:05.947Z,24.20
2017-10-24T01:49:33.507Z,23.23
2017-10-24T01:52:01.828Z,21.57
2017-10-24T01:54:30.016Z,22.10
2017-10-24T01:56:58.337Z,22.97
2017-10-24T01:59:25.864Z,23.57
2017-10-24T02:01:53.391Z,26.80
2017-10-24T02:04:20.925Z,22.50
2017-10-24T02:06:49.351Z,23.77
2017-10-24T02:09:16.880Z,18.50
2017-10-24T02:11:44.414Z,20.87
2017-10-24T02:14:12.597Z,21.57
2017-10-24T02:16:40.128Z,24.47
2017-10-24T02:19:07.653Z,20.50
2017-10-24T02:21:35.235Z,21.37
2017-10-24T02:24:02.760Z,20.07
2017-10-24T02:26:31.770Z,23.17
2017-10-24T02:29:00.389Z,19.77
2017-10-24T02:31:28.730Z,22.97
2017-10-24T02:33:56.256Z,23.53
2017-10-24T02:36:24.565Z,19.73
2017-10-24T02:38:52.908Z,20.43
2017-10-24T02:41:20.474Z,20.20
2017-10-24T02:43:48.916Z,20.07
2017-10-24T02:46:16.461Z,19.87
2017-10-24T02:48:44.902Z,18.03
2017-10-24T02:51:12.437Z,19.73
2017-10-24T02:53:40.865Z,18.53
2017-10-24T02:56:08.409Z,20.00
2017-10-24T02:58:36.970Z,19.00
2017-10-24T03:01:04.515Z,16.17
2017-10-24T03:03:32.981Z,18.60
2017-10-24T03:06:00.952Z,16.80
2017-10-24T03:08:29.192Z,17.27
2017-10-24T03:10:56.735Z,18.40
2017-10-24T03:13:24.261Z,16.27
2017-10-24T03:15:52.573Z,19.10
2017-10-24T03:18:20.114Z,18.17
2017-10-24T03:20:48.599Z,17.27
2017-10-24T03:23:16.132Z,17.40
2017-10-24T03:25:44.608Z,18.33
2017-10-24T03:28:12.142Z,18.43
2017-10-24T03:30:40.501Z,20.03
2017-10-24T03:33:08.032Z,21.03
2017-10-24T03:35:36.529Z,19.03
2017-10-24T03:38:04.056Z,21.13
2017-10-24T03:40:32.432Z,20.93
2017-10-24T03:43:00.900Z,20.83
2017-10-24T03:45:28.430Z,17.10
2017-10-24T03:47:56.927Z,15.77
2017-10-24T03:50:25.239Z,18.20
2017-10-24T03:52:52.768Z,19.27
2017-10-24T03:55:20.304Z,19.97
2017-10-24T03:57:48.741Z,19.40
2017-10-24T04:00:19.294Z,18.70
2017-10-24T04:02:47.634Z,20.33
2017-10-24T04:05:15.204Z,19.40
2017-10-24T04:07:43.642Z,18.50
2017-10-24T04:10:11.180Z,16.53
2017-10-24T04:12:38.711Z,17.87
2017-10-24T04:15:06.236Z,18.00
2017-10-24T04:17:33.760Z,18.73
2017-10-24T04:20:01.856Z,17.87
2017-10-24T04:22:31.203Z,18.00
2017-10-24T04:24:58.737Z,16.90
2017-10-24T04:27:26.279Z,19.67
2017-10-24T04:29:53.807Z,21.47
2017-10-24T04:32:21.342Z,22.70
2017-10-24T04:34:49.688Z,21.70
2017-10-24T04:37:17.223Z,21.80
2017-10-24T04:39:44.758Z,22.00
2017-10-24T04:42:12.297Z,23.30
2017-10-24T04:44:39.843Z,21.60
2017-10-24T04:47:07.384Z,21.53
2017-10-24T04:49:35.016Z,23.23
2017-10-24T04:52:03.476Z,19.17
2017-10-24T04:54:31.731Z,23.87
2017-10-24T04:57:00.660Z,23.23
2017-10-24T04:59:28.228Z,24.63
2017-10-24T05:01:56.547Z,25.50
2017-10-24T05:04:24.079Z,24.50
2017-10-24T05:06:52.444Z,24.00
2017-10-24T05:09:19.979Z,21.47
2017-10-24T05:11:47.565Z,23.10
2017-10-24T05:14:15.107Z,17.40
2017-10-24T05:16:42.645Z,20.77
2017-10-24T05:19:11.160Z,20.77
2017-10-24T05:21:38.687Z,20.30
2017-10-24T05:24:07.129Z,19.47
2017-10-24T05:26:34.775Z,18.90
2017-10-24T05:29:02.429Z,17.87
2017-10-24T05:31:30.771Z,17.53
2017-10-24T05:33:58.307Z,22.17
2017-10-24T05:36:25.933Z,20.30
2017-10-24T05:38:53.457Z,21.07
2017-10-24T05:41:20.989Z,19.40
2017-10-24T05:43:49.419Z,20.83
2017-10-24T05:46:16.985Z,21.20
2017-10-24T05:48:44.557Z,20.33
2017-10-24T05:51:12.895Z,18.57
2017-10-24T05:53:40.425Z,20.23
2017-10-24T05:56:07.949Z,20.50
2017-10-24T05:58:36.408Z,17.13
2017-10-24T06:01:03.932Z,19.10
2017-10-24T06:03:32.389Z,15.70
2017-10-24T06:06:00.592Z,19.80
2017-10-24T06:08:28.896Z,23.43
2017-10-24T06:10:56.434Z,17.10
2017-10-24T06:13:24.012Z,19.77
2017-10-24T06:15:51.546Z,15.97
2017-10-24T06:18:19.168Z,15.73
2017-10-24T06:20:46.697Z,17.50
2017-10-24T06:23:14.231Z,15.50
2017-10-24T06:25:41.761Z,15.53
2017-10-24T06:28:10.124Z,15.63
2017-10-24T06:30:37.663Z,16.97
2017-10-24T06:33:06.177Z,15.90
2017-10-24T06:35:33.760Z,15.33
2017-10-24T06:38:02.192Z,16.13
2017-10-24T06:40:30.607Z,13.40
2017-10-24T06:42:58.976Z,15.17
2017-10-24T06:45:27.283Z,13.43
2017-10-24T06:47:54.849Z,14.03
2017-10-24T06:50:23.168Z,13.83
2017-10-24T06:52:50.748Z,13.37
2017-10-24T06:55:18.313Z,13.03
2017-10-24T06:57:46.784Z,12.63
2017-10-24T07:00:15.128Z,11.90
2017-10-24T07:02:42.665Z,13.63
2017-10-24T07:05:10.192Z,15.93
2017-10-24T07:07:38.644Z,13.47
2017-10-24T07:10:06.225Z,16.20
2017-10-24T07:12:34.686Z,12.70
2017-10-24T07:15:02.922Z,12.93
2017-10-24T07:17:30.716Z,12.53
2017-10-24T07:19:58.249Z,13.33
2017-10-24T07:22:28.449Z,14.10
2017-10-24T07:24:55.979Z,12.40
2017-10-24T07:27:24.332Z,15.70
2017-10-24T07:29:52.180Z,11.90
2017-10-24T07:32:19.815Z,13.87
2017-10-24T07:34:47.363Z,14.53
2017-10-24T07:37:14.896Z,14.43
2017-10-24T07:39:42.432Z,15.73
2017-10-24T07:42:09.987Z,15.27
2017-10-24T07:44:37.609Z,14.40
2017-10-24T07:47:05.268Z,15.20
2017-10-24T07:49:32.795Z,14.63
2017-10-24T07:52:00.325Z,15.73
2017-10-24T07:54:28.627Z,16.07
2017-10-24T07:56:56.227Z,16.03
2017-10-24T07:59:24.799Z,16.90
2017-10-24T08:01:52.984Z,15.10
2017-10-24T08:04:20.644Z,15.77
2017-10-24T08:06:49.032Z,16.37
2017-10-24T08:09:16.611Z,15.80
2017-10-24T08:11:44.924Z,14.90
2017-10-24T08:14:12.465Z,15.53
2017-10-24T08:16:41.016Z,18.37
2017-10-24T08:19:08.681Z,17.57
2017-10-24T08:21:36.247Z,17.50
2017-10-24T08:24:04.721Z,17.80
2017-10-24T08:26:32.377Z,17.43
2017-10-24T08:29:00.721Z,17.03
2017-10-24T08:31:28.251Z,16.13
2017-10-24T08:33:56.714Z,15.90
2017-10-24T08:36:25.088Z,16.80
2017-10-24T08:38:54.148Z,16.47
2017-10-24T08:41:21.675Z,14.97
2017-10-24T08:43:50.015Z,16.53
2017-10-24T08:46:17.573Z,19.10
2017-10-24T08:48:45.941Z,16.63
2017-10-24T08:51:14.172Z,14.97
2017-10-24T08:53:41.792Z,18.33
2017-10-24T08:56:09.333Z,17.67
2017-10-24T08:58:37.763Z,17.20
2017-10-24T09:01:06.316Z,16.40
2017-10-24T09:03:33.875Z,15.77
2017-10-24T09:06:18.336Z,16.07
2017-10-24T09:12:10.324Z,17.30
2017-10-24T09:14:39.623Z,18.00
2017-10-24T09:20:08.509Z,19.43
2017-10-24T09:22:36.084Z,20.80
2017-10-24T09:25:03.621Z,18.80
2017-10-24T09:27:31.208Z,19.60
2017-10-24T09:29:59.676Z,18.90
2017-10-24T09:32:29.733Z,19.30
2017-10-24T09:34:58.269Z,16.93
2017-10-24T09:37:25.799Z,16.83
2017-10-24T09:39:53.360Z,17.70
2017-10-24T09:42:20.950Z,17.53
2017-10-24T09:44:48.483Z,16.97
2017-10-24T09:47:16.074Z,17.20
2017-10-24T09:49:55.461Z,17.27
2017-10-24T09:52:23.005Z,17.03
2017-10-24T09:54:50.536Z,16.63
2017-10-24T09:57:18.077Z,17.23
2017-10-24T09:59:46.325Z,16.63
2017-10-24T10:02:13.862Z,15.00
2017-10-24T10:04:41.392Z,17.33
2017-10-24T10:07:09.712Z,15.20
2017-10-24T10:09:37.260Z,15.87
2017-10-24T10:12:04.887Z,16.10
2017-10-24T10:14:32.448Z,14.10
2017-10-24T10:16:59.981Z,13.93
2017-10-24T10:19:27.512Z,14.33
2017-10-24T10:21:55.134Z,13.90
2017-10-24T10:24:30.367Z,14.20
2017-10-24T10:26:58.644Z,13.50
2017-10-24T10:29:26.171Z,16.17
2017-10-24T10:31:53.699Z,13.87
2017-10-24T10:34:21.244Z,13.83
2017-10-24T10:36:49.766Z,12.23
2017-10-24T10:39:17.369Z,12.77
2017-10-24T10:41:44.907Z,13.50
2017-10-24T10:44:12.494Z,14.80
2017-10-24T10:46:40.055Z,14.00
2017-10-24T10:49:07.596Z,12.20
2017-10-24T10:51:35.920Z,11.30
2017-10-24T10:54:03.461Z,10.67
2017-10-24T10:56:30.993Z,11.93
2017-10-24T10:58:58.575Z,10.37
2017-10-24T11:01:26.114Z,10.93
2017-10-24T11:03:54.518Z,10.33
2017-10-24T11:06:22.068Z,7.77
2017-10-24T11:08:49.627Z,8.63
2017-10-24T11:11:17.201Z,7.27
2017-10-24T11:13:44.728Z,7.13
2017-10-24T11:16:13.296Z,6.70
2017-10-24T11:18:41.533Z,6.80
2017-10-24T11:21:09.978Z,6.43
2017-10-24T11:23:37.708Z,6.77
2017-10-24T11:26:05.236Z,5.97
2017-10-24T11:28:32.778Z,6.40
2017-10-24T11:31:00.306Z,5.30
2017-10-24T11:33:27.852Z,5.23
2017-10-24T11:35:55.388Z,6.10
2017-10-24T11:38:22.921Z,5.53
2017-10-24T11:40:50.457Z,6.47
2017-10-24T11:43:17.988Z,5.43
2017-10-24T11:45:45.571Z,5.63
2017-10-24T11:48:13.154Z,5.20
2017-10-24T11:50:40.684Z,6.37
2017-10-24T11:53:09.299Z,5.33
2017-10-24T11:55:36.849Z,5.90
2017-10-24T11:58:04.433Z,5.47
2017-10-24T12:00:31.985Z,5.23
2017-10-24T12:02:59.542Z,5.37
2017-10-24T12:05:27.072Z,6.30
2017-10-24T12:07:54.657Z,6.57
2017-10-24T12:10:22.230Z,6.60
2017-10-24T12:12:49.801Z,7.13
2017-10-24T12:15:17.376Z,5.73
2017-10-24T12:17:45.812Z,6.40
2017-10-24T12:20:13.929Z,6.90
2017-10-24T12:22:41.563Z,6.57
2017-10-24T12:25:10.042Z,5.70
2017-10-24T12:27:37.851Z,6.73
2017-10-24T12:30:05.432Z,7.10
2017-10-24T12:32:32.967Z,6.37
2017-10-24T12:35:00.497Z,8.10
2017-10-24T12:37:28.060Z,7.10
2017-10-24T12:39:55.596Z,7.30
2017-10-24T12:42:23.448Z,7.10
2017-10-24T12:45:00.872Z,8.33
2017-10-24T12:47:28.400Z,6.47
2017-10-24T12:53:05.873Z,8.40
2017-10-24T12:55:33.405Z,7.53
2017-10-24T12:58:01.245Z,8.50
2017-10-24T13:00:28.772Z,8.47
2017-10-24T13:02:56.304Z,8.37
2017-10-24T13:05:26.227Z,8.80
2017-10-24T13:07:54.521Z,7.87
2017-10-24T13:10:22.556Z,9.30
2017-10-24T13:12:50.080Z,9.40
2017-10-24T13:15:17.859Z,8.60
2017-10-24T13:17:46.250Z,9.63
2017-10-24T13:20:14.749Z,7.90
2017-10-24T13:22:43.016Z,7.73
2017-10-24T13:25:10.586Z,8.03
2017-10-24T13:27:38.122Z,8.23
2017-10-24T13:30:06.433Z,8.60
2017-10-24T13:32:35.046Z,7.40
2017-10-24T13:35:03.474Z,8.37
2017-10-24T13:37:31.041Z,8.77
2017-10-24T13:39:59.513Z,8.77
2017-10-24T13:42:28.111Z,8.13
2017-10-24T13:44:55.636Z,8.00
2017-10-24T13:47:24.053Z,8.47
2017-10-24T13:49:52.600Z,7.63
2017-10-24T13:52:20.950Z,8.10
2017-10-24T13:54:48.529Z,8.40
2017-10-24T13:57:16.061Z,7.57
2017-10-24T13:59:43.592Z,9.33
2017-10-24T14:02:11.123Z,8.07
2017-10-24T14:04:44.332Z,7.83
2017-10-24T20:44:29.684Z,7.40
2017-10-24T20:46:58.272Z,7.20
2017-10-24T20:49:26.699Z,6.10
2017-10-24T20:51:54.230Z,6.20
2017-10-24T20:54:21.762Z,6.67
2017-10-24T20:56:49.335Z,6.30
2017-10-24T20:59:17.800Z,5.90
2017-10-24T21:01:46.246Z,6.80
2017-10-24T21:04:14.692Z,6.07
2017-10-24T21:06:42.228Z,6.97
2017-10-24T21:09:10.654Z,6.47
2017-10-24T21:11:38.309Z,5.90
2017-10-24T21:14:05.878Z,6.07
2017-10-24T21:16:33.432Z,5.80
2017-10-24T21:19:01.849Z,6.83
2017-10-24T21:21:29.381Z,6.00
2017-10-24T21:23:57.652Z,4.80
2017-10-24T21:26:25.312Z,5.43
2017-10-24T21:28:52.871Z,5.63
2017-10-24T21:31:20.388Z,5.37
2017-10-24T21:33:47.912Z,5.07
2017-10-24T21:36:17.506Z,5.10
2017-10-24T21:38:45.836Z,6.37
2017-10-24T21:41:13.440Z,5.47
2017-10-24T21:43:41.654Z,4.73
2017-10-24T21:46:10.273Z,5.63
2017-10-24T21:48:37.801Z,5.30
2017-10-24T21:51:05.420Z,5.07
2017-10-24T21:53:33.709Z,5.03
2017-10-24T21:56:01.227Z,4.93
2017-10-24T21:58:28.752Z,4.93
2017-10-24T22:00:56.380Z,4.77
2017-10-24T22:03:24.658Z,5.80
2017-10-24T22:05:52.223Z,5.40
2017-10-24T22:08:19.784Z,4.87
2017-10-24T22:10:47.341Z,5.60
2017-10-24T22:13:14.868Z,4.50
2017-10-24T22:15:42.428Z,5.50
2017-10-24T22:18:10.360Z,4.93
2017-10-24T22:20:37.883Z,4.40
2017-10-24T22:23:05.452Z,4.13
2017-10-24T22:25:33.013Z,4.40
2017-10-24T22:28:00.575Z,3.87
2017-10-24T22:30:28.132Z,4.40
2017-10-24T22:32:56.509Z,4.40
2017-10-24T22:35:24.067Z,4.33
2017-10-24T22:37:53.072Z,4.03
2017-10-24T22:40:20.729Z,3.60
2017-10-24T22:42:48.262Z,4.20
2017-10-24T22:45:15.784Z,4.87
2017-10-24T22:47:44.086Z,4.97
2017-10-24T22:50:11.608Z,4.80
2017-10-24T22:52:39.340Z,5.00
2017-10-24T22:55:06.907Z,5.20
2017-10-24T22:57:34.466Z,4.90
2017-10-24T23:00:02.628Z,5.70
2017-10-24T23:02:30.200Z,5.10
2017-10-24T23:04:57.769Z,4.77
2017-10-24T23:07:26.161Z,4.43
2017-10-24T23:09:53.703Z,6.07
2017-10-24T23:12:21.364Z,6.70
2017-10-24T23:14:48.896Z,5.77
2017-10-24T23:17:17.280Z,6.33
2017-10-24T23:19:44.809Z,5.50
2017-10-24T23:22:12.331Z,5.00
2017-10-24T23:24:39.861Z,5.60
2017-10-24T23:27:07.448Z,5.20
2017-10-24T23:29:35.213Z,5.63
2017-10-24T23:32:02.746Z,6.67
2017-10-24T23:34:31.644Z,6.17
2017-10-24T23:36:59.223Z,5.63
2017-10-24T23:39:27.744Z,6.23
2017-10-24T23:41:55.367Z,6.43
2017-10-24T23:44:22.928Z,6.20
2017-10-24T23:46:50.455Z,5.07
2017-10-24T23:49:18.667Z,6.27
2017-10-24T23:51:46.193Z,7.27
2017-10-24T23:54:14.607Z,6.23
2017-10-24T23:56:42.267Z,7.67
2017-10-24T23:59:09.829Z,6.80
